Terminal Aerodrome Forecast
Issued by NWS

Home | Current Version | Previous Version | Text Only | Print | Product List | Glossary On
Versions: 1 2 3 4 5 6 7 8 9 10 11 12 13 14 15
000
FTUS41 KPBZ 301900 AAA
TAFBVI
TAF AMD
KBVI 301933Z 3020/0118 28006KT P6SM SCT015 BKN050
     FM010000 30006KT P6SM OVC020
     FM011500 12005KT P6SM BKN035=

USA.gov is the U.S. government's official web portal to all federal, state and local government web resources and services.